createdAt,value
2022-12-31T00:01:50.692Z,99497.91
2022-12-31T00:04:17.649Z,99492.75
2022-12-31T00:06:44.708Z,99500.56
2022-12-31T00:09:11.708Z,99528.84
2022-12-31T00:11:38.901Z,99509.03
2022-12-31T00:14:06.092Z,99512.44
2022-12-31T00:16:37.006Z,99521.81
2022-12-31T00:19:04.784Z,99534.63
2022-12-31T00:21:32.593Z,99553.41
2022-12-31T00:23:59.666Z,99537.91
2022-12-31T00:26:28.284Z,99547.41
2022-12-31T00:28:55.915Z,99538.88
2022-12-31T00:31:24.550Z,99523.50
2022-12-31T00:33:51.677Z,99537.16
2022-12-31T00:36:22.477Z,99525.19
2022-12-31T00:38:50.323Z,99561.16
2022-12-31T00:41:17.690Z,99535.44
2022-12-31T00:43:44.878Z,99543.13
2022-12-31T00:46:12.091Z,99554.25
2022-12-31T00:48:39.316Z,99542.25
2022-12-31T00:51:07.743Z,99534.53
2022-12-31T00:53:34.784Z,99538.88
2022-12-31T00:56:02.220Z,99572.28
2022-12-31T00:58:29.257Z,99544.00
2022-12-31T01:00:56.214Z,99567.13
2022-12-31T01:03:23.568Z,99561.88
2022-12-31T01:05:50.640Z,99583.31
2022-12-31T01:08:18.119Z,99569.63
2022-12-31T01:11:08.177Z,99567.91
2022-12-31T01:13:35.135Z,99554.91
2022-12-31T01:16:12.161Z,99573.81
2022-12-31T01:18:39.359Z,99599.50
2022-12-31T01:21:07.948Z,99581.41
2022-12-31T01:23:35.071Z,99603.72
2022-12-31T01:26:06.233Z,99601.16
2022-12-31T01:28:33.549Z,99597.78
2022-12-31T01:31:04.328Z,99565.25
2022-12-31T01:33:31.355Z,99550.84
2022-12-31T01:36:02.945Z,99538.16
2022-12-31T01:38:29.929Z,99551.94
2022-12-31T01:40:56.825Z,99539.03
2022-12-31T01:43:23.812Z,99561.22
2022-12-31T01:45:52.748Z,99568.06
2022-12-31T01:48:25.287Z,99549.94
2022-12-31T01:50:52.604Z,99545.66
2022-12-31T01:53:19.559Z,99557.66
2022-12-31T01:55:58.005Z,99578.28
2022-12-31T01:58:27.917Z,99566.22
2022-12-31T02:00:54.891Z,99577.38
2022-12-31T02:03:22.354Z,99579.19
2022-12-31T02:06:20.433Z,99594.53
2022-12-31T02:08:47.741Z,99569.53
2022-12-31T02:11:33.117Z,99609.91
2022-12-31T02:14:03.453Z,99589.25
2022-12-31T02:16:48.979Z,99618.38
2022-12-31T02:19:36.995Z,99613.31
2022-12-31T02:22:22.936Z,99601.22
2022-12-31T02:25:08.859Z,99630.34
2022-12-31T02:27:38.676Z,99629.38
2022-12-31T02:30:19.745Z,99625.88
2022-12-31T02:32:58.132Z,99638.91
2022-12-31T02:35:29.522Z,99628.56
2022-12-31T02:38:03.432Z,99631.22
2022-12-31T02:40:30.555Z,99611.41
2022-12-31T02:42:57.467Z,99583.09
2022-12-31T02:45:28.782Z,99610.59
2022-12-31T02:47:55.679Z,99622.84
2022-12-31T02:50:40.723Z,99620.28
2022-12-31T02:53:32.896Z,99608.22
2022-12-31T02:56:14.332Z,99624.44
2022-12-31T02:59:16.498Z,99627.91
2022-12-31T03:02:02.848Z,99602.19
2022-12-31T03:04:33.292Z,99604.75
2022-12-31T03:07:07.334Z,99614.31
2022-12-31T03:09:34.951Z,99589.47
2022-12-31T03:12:20.306Z,99603.22
2022-12-31T03:14:47.417Z,99613.34
2022-12-31T03:17:14.385Z,99615.06
2022-12-31T03:19:59.750Z,99625.44
2022-12-31T03:22:29.858Z,99623.63
2022-12-31T03:25:22.083Z,99615.00
2022-12-31T03:27:50.043Z,99604.63
2022-12-31T03:30:17.678Z,99633.03
2022-12-31T03:32:45.326Z,99636.44
2022-12-31T03:35:13.523Z,99649.28
2022-12-31T03:37:41.215Z,99652.63
2022-12-31T03:40:10.407Z,99658.44
2022-12-31T03:42:37.665Z,99679.91
2022-12-31T03:45:04.822Z,99677.28
2022-12-31T03:47:31.779Z,99662.72
2022-12-31T03:49:58.716Z,99668.81
2022-12-31T03:52:25.596Z,99659.25
2022-12-31T03:54:52.545Z,99679.94
2022-12-31T03:57:19.556Z,99673.16
2022-12-31T03:59:46.442Z,99661.97
2022-12-31T04:02:13.527Z,99657.66
2022-12-31T04:04:40.623Z,99666.28
2022-12-31T04:07:07.555Z,99676.59
2022-12-31T04:09:34.493Z,99670.66
2022-12-31T04:12:01.437Z,99642.41
2022-12-31T04:14:28.400Z,99653.63
2022-12-31T04:16:55.295Z,99651.81
2022-12-31T04:19:22.251Z,99643.25
2022-12-31T04:21:49.247Z,99657.78
2022-12-31T04:24:16.190Z,99671.31
2022-12-31T04:26:44.235Z,99660.97
2022-12-31T04:29:11.294Z,99664.47
2022-12-31T04:31:38.274Z,99681.66
2022-12-31T04:34:05.309Z,99682.44
2022-12-31T04:36:32.256Z,99691.84
2022-12-31T04:38:59.176Z,99685.78
2022-12-31T04:41:27.270Z,99701.25
2022-12-31T04:43:55.540Z,99705.47
2022-12-31T04:46:30.202Z,99702.78
2022-12-31T04:48:57.266Z,99725.84
2022-12-31T04:51:24.673Z,99719.03
2022-12-31T04:53:51.648Z,99723.47
2022-12-31T04:56:18.621Z,99736.31
2022-12-31T04:58:45.703Z,99685.66
2022-12-31T05:01:12.736Z,99708.91
2022-12-31T05:03:39.906Z,99703.84
2022-12-31T05:06:15.814Z,99728.72
2022-12-31T05:08:42.858Z,99722.59
2022-12-31T05:11:10.039Z,99727.81
2022-12-31T05:13:37.091Z,99725.28
2022-12-31T05:16:04.280Z,99721.88
2022-12-31T05:18:31.602Z,99715.69
2022-12-31T05:20:58.570Z,99727.81
2022-12-31T05:23:25.608Z,99723.53
2022-12-31T05:25:52.524Z,99734.69
2022-12-31T05:28:19.653Z,99697.63
2022-12-31T05:30:49.055Z,99708.81
2022-12-31T05:33:16.352Z,99729.50
2022-12-31T05:35:43.239Z,99749.16
2022-12-31T05:38:10.207Z,99739.63
2022-12-31T05:40:37.209Z,99739.69
2022-12-31T05:43:04.186Z,99733.69
2022-12-31T05:45:31.515Z,99755.97
2022-12-31T05:47:58.667Z,99717.38
2022-12-31T05:50:25.619Z,99727.88
2022-12-31T05:52:56.083Z,99731.31
2022-12-31T05:55:23.137Z,99722.75
2022-12-31T05:57:50.045Z,99741.56
2022-12-31T06:00:17.299Z,99738.09
2022-12-31T06:02:45.268Z,99731.22
2022-12-31T06:05:12.412Z,99716.56
2022-12-31T06:07:39.476Z,99744.22
2022-12-31T06:10:06.978Z,99737.16
2022-12-31T06:12:34.056Z,99745.72
2022-12-31T06:15:00.998Z,99756.84
2022-12-31T06:17:32.156Z,99743.19
2022-12-31T06:20:00.026Z,99746.53
2022-12-31T06:22:26.960Z,99769.53
2022-12-31T06:24:53.962Z,99785.94
2022-12-31T06:27:20.878Z,99785.09
2022-12-31T06:29:48.285Z,99755.06
2022-12-31T06:32:16.109Z,99756.00
2022-12-31T06:34:43.103Z,99782.53
2022-12-31T06:37:10.022Z,99754.13
2022-12-31T06:39:36.935Z,99780.75
2022-12-31T06:42:03.971Z,99774.91
2022-12-31T06:44:30.982Z,99770.56
2022-12-31T06:46:58.005Z,99772.31
2022-12-31T06:49:25.047Z,99750.81
2022-12-31T06:51:52.001Z,99767.03
2022-12-31T06:54:19.435Z,99770.69
2022-12-31T06:56:46.567Z,99764.47
2022-12-31T06:59:23.243Z,99780.06
2022-12-31T07:02:19.391Z,99797.13
2022-12-31T07:05:05.983Z,99784.19
2022-12-31T07:07:48.107Z,99793.72
2022-12-31T07:10:27.296Z,99788.47
2022-12-31T07:13:05.306Z,99799.59
2022-12-31T07:15:47.562Z,99809.94
2022-12-31T07:18:33.288Z,99807.25
2022-12-31T07:21:00.653Z,99802.75
2022-12-31T07:23:27.892Z,99826.72
2022-12-31T07:26:06.502Z,99825.84
2022-12-31T07:28:45.595Z,99857.59
2022-12-31T07:31:34.893Z,99816.44
2022-12-31T07:34:16.238Z,99817.25
2022-12-31T07:37:21.662Z,99844.91
2022-12-31T07:40:06.859Z,99841.50
2022-12-31T07:42:46.535Z,99846.47
2022-12-31T07:45:27.272Z,99850.81
2022-12-31T07:48:02.831Z,99843.97
2022-12-31T07:50:30.668Z,99818.25
2022-12-31T07:52:57.889Z,99807.97
2022-12-31T07:55:24.994Z,99826.03
2022-12-31T07:58:04.619Z,99862.97
2022-12-31T08:00:31.693Z,99837.16
2022-12-31T08:03:35.824Z,99860.41
2022-12-31T08:06:15.521Z,99837.09
2022-12-31T08:08:46.809Z,99857.84
2022-12-31T08:11:34.623Z,99868.03
2022-12-31T08:14:02.691Z,99875.72
2022-12-31T08:16:31.411Z,99872.34
2022-12-31T08:18:58.771Z,99864.66
2022-12-31T08:21:35.004Z,99878.41
2022-12-31T08:24:26.589Z,99886.03
2022-12-31T08:27:00.958Z,99873.03
2022-12-31T08:29:34.101Z,99890.34
2022-12-31T08:32:07.404Z,99873.31
2022-12-31T08:35:06.713Z,99880.06
2022-12-31T08:38:04.725Z,99882.66
2022-12-31T08:40:35.181Z,99869.78
2022-12-31T08:43:33.416Z,99890.41
2022-12-31T08:46:00.585Z,99888.63
2022-12-31T08:48:40.544Z,99885.34
2022-12-31T08:51:13.275Z,99895.50
2022-12-31T08:53:40.484Z,99896.44
2022-12-31T08:56:41.403Z,99907.53
2022-12-31T08:59:15.323Z,99902.41
2022-12-31T09:01:54.699Z,99907.59
2022-12-31T09:04:21.745Z,99909.31
2022-12-31T09:06:54.139Z,99891.28
2022-12-31T09:09:28.381Z,99901.69
2022-12-31T09:12:15.651Z,99900.03
2022-12-31T09:14:50.465Z,99881.94
2022-12-31T09:17:36.171Z,99902.66
2022-12-31T09:20:03.673Z,99901.75
2022-12-31T09:22:31.044Z,99896.59
2022-12-31T09:25:01.321Z,99887.94
2022-12-31T09:27:28.939Z,99907.84
2022-12-31T09:30:05.087Z,99905.34
2022-12-31T09:32:42.946Z,99913.00
2022-12-31T09:35:31.187Z,99899.34
2022-12-31T09:38:07.913Z,99851.34
2022-12-31T09:41:01.526Z,99858.13
2022-12-31T09:43:31.784Z,99902.00
2022-12-31T09:46:23.719Z,99902.88
2022-12-31T09:49:03.045Z,99876.28
2022-12-31T09:51:30.931Z,99883.28
2022-12-31T09:54:19.732Z,99859.50
2022-12-31T09:57:06.976Z,99841.28
2022-12-31T09:59:41.426Z,99873.03
2022-12-31T10:02:33.529Z,99880.88
2022-12-31T10:05:12.985Z,99888.56
2022-12-31T10:07:53.646Z,99854.25
2022-12-31T10:10:57.863Z,99837.09
2022-12-31T10:13:49.787Z,99886.88
2022-12-31T10:16:21.801Z,99899.75
2022-12-31T10:19:00.574Z,99896.34
2022-12-31T10:22:05.161Z,99910.88
2022-12-31T10:24:35.138Z,99913.91
2022-12-31T10:27:09.431Z,99899.66
2022-12-31T10:29:58.267Z,99895.47
2022-12-31T10:32:45.935Z,99884.38
2022-12-31T10:35:15.408Z,99878.31
2022-12-31T10:38:19.499Z,99887.97
2022-12-31T10:40:52.546Z,99885.31
2022-12-31T10:43:58.065Z,99878.59
2022-12-31T10:46:37.439Z,99869.19
2022-12-31T10:49:43.514Z,99881.16
2022-12-31T10:52:38.167Z,99848.53
2022-12-31T10:55:26.636Z,99880.44
2022-12-31T10:58:16.908Z,99875.34
2022-12-31T11:00:53.618Z,99859.16
2022-12-31T11:03:35.844Z,99857.41
2022-12-31T11:06:17.736Z,99871.19
2022-12-31T11:09:19.690Z,99889.09
2022-12-31T11:12:05.824Z,99898.47
2022-12-31T11:14:38.848Z,99899.41
2022-12-31T11:17:27.501Z,99887.31
2022-12-31T11:20:15.864Z,99877.16
2022-12-31T11:23:01.820Z,99873.84
2022-12-31T11:25:30.920Z,99879.84
2022-12-31T11:28:12.979Z,99868.84
2022-12-31T11:30:59.567Z,99863.72
2022-12-31T11:33:35.589Z,99849.28
2022-12-31T11:36:09.694Z,99858.72
2022-12-31T11:38:41.126Z,99854.41
2022-12-31T11:41:13.060Z,99843.31
2022-12-31T11:43:47.788Z,99838.28
2022-12-31T11:46:33.677Z,99849.44
2022-12-31T11:49:45.320Z,99858.88
2022-12-31T11:52:49.020Z,99862.31
2022-12-31T11:55:34.435Z,99858.13
2022-12-31T11:58:22.698Z,99824.50
2022-12-31T12:00:58.508Z,99821.19
2022-12-31T12:03:25.727Z,99837.53
2022-12-31T12:05:52.804Z,99855.63
2022-12-31T12:08:19.870Z,99879.72
2022-12-31T12:10:48.593Z,99864.41
2022-12-31T12:13:24.195Z,99874.66
2022-12-31T12:15:53.255Z,99849.72
2022-12-31T12:18:24.988Z,99812.97
2022-12-31T12:20:52.029Z,99819.09
2022-12-31T12:23:24.794Z,99777.97
2022-12-31T12:25:51.944Z,99790.78
2022-12-31T12:28:23.790Z,99813.28
2022-12-31T12:30:55.939Z,99820.97
2022-12-31T12:33:23.094Z,99802.06
2022-12-31T12:35:50.206Z,99848.41
2022-12-31T12:38:21.394Z,99811.47
2022-12-31T12:41:02.437Z,99811.47
2022-12-31T12:43:36.262Z,99819.22
2022-12-31T12:46:04.426Z,99839.13
2022-12-31T12:48:42.733Z,99834.91
2022-12-31T12:51:33.080Z,99850.22
2022-12-31T12:54:10.430Z,99834.81
2022-12-31T12:56:39.970Z,99842.63
2022-12-31T12:59:38.892Z,99846.00
2022-12-31T13:02:11.984Z,99845.19
2022-12-31T13:04:51.752Z,99846.00
2022-12-31T13:07:58.771Z,99821.97
2022-12-31T13:11:06.407Z,99840.91
2022-12-31T13:13:59.470Z,99848.56
2022-12-31T13:16:47.859Z,99849.50
2022-12-31T13:19:36.393Z,99842.69
2022-12-31T13:22:14.898Z,99847.84
2022-12-31T13:25:06.308Z,99815.09
2022-12-31T13:27:41.019Z,99850.44
2022-12-31T13:30:31.567Z,99839.19
2022-12-31T13:33:04.021Z,99807.41
2022-12-31T13:35:47.431Z,99846.25
2022-12-31T13:38:21.991Z,99818.72
2022-12-31T13:40:54.114Z,99818.66
2022-12-31T13:43:33.399Z,99843.69
2022-12-31T13:46:12.614Z,99860.00
2022-12-31T13:48:51.928Z,99841.91
2022-12-31T13:51:42.937Z,99827.31
2022-12-31T13:54:22.683Z,99835.97
2022-12-31T13:56:49.763Z,99831.66
2022-12-31T13:59:34.798Z,99811.09
2022-12-31T14:02:23.654Z,99823.06
2022-12-31T14:04:53.389Z,99860.13
2022-12-31T14:07:35.449Z,99850.66
2022-12-31T14:10:14.024Z,99834.22
2022-12-31T14:12:50.250Z,99870.44
2022-12-31T14:15:35.858Z,99854.94
2022-12-31T14:18:25.963Z,99871.25
2022-12-31T14:21:06.739Z,99866.09
2022-12-31T14:24:01.157Z,99878.97
2022-12-31T14:26:35.074Z,99886.69
2022-12-31T14:29:11.378Z,99879.88
2022-12-31T14:31:50.361Z,99881.50
2022-12-31T14:34:29.660Z,99879.88
2022-12-31T14:37:21.468Z,99877.28
2022-12-31T14:40:10.440Z,99884.09
2022-12-31T14:42:52.175Z,99847.19
2022-12-31T14:45:25.225Z,99877.31
2022-12-31T14:48:01.215Z,99884.13
2022-12-31T14:50:29.218Z,99880.72
2022-12-31T14:53:08.027Z,99879.88
2022-12-31T14:55:39.094Z,99853.16
2022-12-31T14:58:28.211Z,99880.66
2022-12-31T15:01:00.649Z,99865.25
2022-12-31T15:03:45.468Z,99893.53
2022-12-31T15:06:48.198Z,99894.31
2022-12-31T15:09:47.576Z,99881.41
2022-12-31T15:12:28.445Z,99843.69
2022-12-31T15:15:14.059Z,99875.47
2022-12-31T15:18:06.364Z,99890.91
2022-12-31T15:21:03.572Z,99888.28
2022-12-31T15:23:35.910Z,99885.72
2022-12-31T15:26:03.038Z,99870.13
2022-12-31T15:28:33.964Z,99876.25
2022-12-31T15:31:20.289Z,99871.06
2022-12-31T15:34:03.233Z,99858.25
2022-12-31T15:36:39.095Z,99872.03
2022-12-31T15:39:11.997Z,99891.81
2022-12-31T15:42:18.781Z,99884.06
2022-12-31T15:44:50.399Z,99886.63
2022-12-31T15:47:50.151Z,99878.06
2022-12-31T15:50:24.992Z,99890.91
2022-12-31T15:52:57.970Z,99887.47
2022-12-31T15:55:33.370Z,99884.03
2022-12-31T15:58:05.910Z,99884.06
2022-12-31T16:01:23.291Z,99878.88
2022-12-31T16:03:56.961Z,99864.19
2022-12-31T16:06:24.440Z,99843.47
2022-12-31T16:08:51.878Z,99891.72
2022-12-31T16:11:20.485Z,99874.41
2022-12-31T16:13:50.114Z,99900.28
2022-12-31T16:16:25.767Z,99873.56
2022-12-31T16:18:53.419Z,99862.28
2022-12-31T16:21:35.723Z,99892.31
2022-12-31T16:24:31.131Z,99873.41
2022-12-31T16:27:03.201Z,99888.88
2022-12-31T16:29:31.025Z,99892.25
2022-12-31T16:31:58.252Z,99890.47
2022-12-31T16:34:26.987Z,99897.25
2022-12-31T16:36:55.728Z,99898.97
2022-12-31T16:39:26.055Z,99890.38
2022-12-31T16:42:06.964Z,99910.13
2022-12-31T16:44:34.044Z,99901.47
2022-12-31T16:47:01.914Z,99918.63
2022-12-31T16:49:30.934Z,99899.75
2022-12-31T16:52:03.837Z,99905.75
2022-12-31T16:54:34.611Z,99926.47
2022-12-31T16:57:03.807Z,99928.16
2022-12-31T16:59:36.288Z,99891.97
2022-12-31T17:02:07.003Z,99894.53
2022-12-31T17:04:35.216Z,99910.84
2022-12-31T17:07:28.171Z,99931.53
2022-12-31T17:10:07.551Z,99929.81
2022-12-31T17:13:00.623Z,99935.81
2022-12-31T17:15:29.339Z,99924.47
2022-12-31T17:17:58.604Z,99925.22
2022-12-31T17:20:28.027Z,99926.13
2022-12-31T17:23:00.003Z,99931.28
2022-12-31T17:25:31.195Z,99933.84
2022-12-31T17:28:03.601Z,99919.16
2022-12-31T17:30:31.648Z,99957.97
2022-12-31T17:33:08.308Z,99916.56
2022-12-31T17:35:37.061Z,99948.41
2022-12-31T17:38:22.540Z,99954.44
2022-12-31T17:40:54.375Z,99901.09
2022-12-31T17:43:22.902Z,99933.00
2022-12-31T17:45:53.058Z,99939.78
2022-12-31T17:48:20.423Z,99934.63
2022-12-31T17:50:58.202Z,99927.59
2022-12-31T17:53:25.310Z,99931.91
2022-12-31T17:55:53.898Z,99925.16
2022-12-31T17:58:33.826Z,99935.56
2022-12-31T18:01:01.047Z,99913.06
2022-12-31T18:03:28.218Z,99906.09
2022-12-31T18:05:55.415Z,99912.13
2022-12-31T18:08:22.491Z,99926.75
2022-12-31T18:10:49.580Z,99889.78
2022-12-31T18:13:21.426Z,99912.09
2022-12-31T18:15:48.666Z,99900.88
2022-12-31T18:18:29.221Z,99935.19
2022-12-31T18:21:01.428Z,99900.81
2022-12-31T18:23:33.221Z,99931.81
2022-12-31T18:26:00.409Z,99888.81
2022-12-31T18:28:27.487Z,99899.06
2022-12-31T18:30:54.665Z,99902.53
2022-12-31T18:33:25.926Z,99887.88
2022-12-31T18:36:10.023Z,99890.50
2022-12-31T18:38:37.659Z,99895.53
2022-12-31T18:41:04.914Z,99901.47
2022-12-31T18:43:32.084Z,99913.53
2022-12-31T18:45:59.299Z,99908.22
2022-12-31T18:48:26.428Z,99908.22
2022-12-31T18:50:53.418Z,99919.34
2022-12-31T18:53:22.407Z,99906.47
2022-12-31T18:55:55.936Z,99940.88
2022-12-31T18:58:23.256Z,99883.19
2022-12-31T19:00:50.634Z,99900.38
2022-12-31T19:03:19.751Z,99889.22
2022-12-31T19:05:49.932Z,99881.44
2022-12-31T19:08:18.121Z,99899.44
2022-12-31T19:10:45.258Z,99895.97
2022-12-31T19:13:13.256Z,99887.41
2022-12-31T19:15:45.159Z,99906.34
2022-12-31T19:18:12.313Z,99909.66
2022-12-31T19:20:41.337Z,99887.22
2022-12-31T19:23:19.597Z,99913.88
2022-12-31T19:25:47.418Z,99918.94
2022-12-31T19:28:22.144Z,99885.31
2022-12-31T19:30:49.185Z,99884.47
2022-12-31T19:33:16.348Z,99890.34
2022-12-31T19:35:43.856Z,99906.63
2022-12-31T19:38:32.591Z,99929.13
2022-12-31T19:40:59.871Z,99918.66
2022-12-31T19:43:26.966Z,99915.13
2022-12-31T19:45:54.205Z,99916.69
2022-12-31T19:48:27.216Z,99921.03
2022-12-31T19:50:59.329Z,99912.22
2022-12-31T19:53:27.144Z,99903.69
2022-12-31T19:55:54.203Z,99912.09
2022-12-31T19:58:25.739Z,99932.00
2022-12-31T20:00:58.249Z,99946.59
2022-12-31T20:03:29.070Z,99945.56
2022-12-31T20:06:07.308Z,99937.84
2022-12-31T20:08:35.363Z,99912.81
2022-12-31T20:11:20.514Z,99925.69
2022-12-31T20:13:48.044Z,99939.47
2022-12-31T20:16:17.281Z,99931.63
2022-12-31T20:18:45.500Z,99919.59
2022-12-31T20:21:14.375Z,99927.41
2022-12-31T20:23:41.551Z,99928.03
2022-12-31T20:26:08.833Z,99922.94
2022-12-31T20:28:36.863Z,99948.81
2022-12-31T20:31:09.741Z,99928.94
2022-12-31T20:33:36.960Z,99926.09
2022-12-31T20:36:05.006Z,99933.94
2022-12-31T20:38:32.149Z,99924.38
2022-12-31T20:41:13.104Z,99925.25
2022-12-31T20:43:40.317Z,99952.66
2022-12-31T20:46:14.299Z,99932.81
2022-12-31T20:48:42.175Z,99933.66
2022-12-31T20:51:10.655Z,99950.97
2022-12-31T20:53:37.835Z,99910.28
2022-12-31T20:56:06.107Z,99927.56
2022-12-31T20:58:33.149Z,99916.31
2022-12-31T21:01:00.554Z,99925.63
2022-12-31T21:04:03.762Z,99923.81
2022-12-31T21:06:15.018Z,99923.81
2022-12-31T21:08:42.229Z,99902.38
2022-12-31T21:11:27.987Z,99950.53
2022-12-31T21:13:55.917Z,99934.88
2022-12-31T21:16:23.229Z,99941.69
2022-12-31T21:18:50.422Z,99933.19
2022-12-31T21:21:18.052Z,99946.06
2022-12-31T21:23:45.376Z,99927.88
2022-12-31T21:26:12.544Z,99927.09
2022-12-31T21:28:39.607Z,99930.25
2022-12-31T21:31:07.460Z,99927.72
2022-12-31T21:33:34.704Z,99957.16
2022-12-31T21:36:04.816Z,99961.34
2022-12-31T21:38:32.073Z,99938.06
2022-12-31T21:41:06.054Z,99938.00
2022-12-31T21:43:33.219Z,99939.78
2022-12-31T21:46:04.355Z,99928.56
2022-12-31T21:48:31.715Z,99923.31
2022-12-31T21:51:07.431Z,99948.28
2022-12-31T21:53:37.267Z,99916.28
2022-12-31T21:56:13.689Z,99921.38
2022-12-31T21:58:42.196Z,99922.22
2022-12-31T22:01:33.722Z,99937.53
2022-12-31T22:04:00.990Z,99955.59
2022-12-31T22:06:28.027Z,99944.28
2022-12-31T22:08:55.669Z,99962.44
2022-12-31T22:11:24.912Z,99965.06
2022-12-31T22:13:52.046Z,99939.06
2022-12-31T22:16:20.515Z,99963.16
2022-12-31T22:18:47.883Z,99937.31
2022-12-31T22:21:19.207Z,99946.69
2022-12-31T22:23:54.158Z,99950.16
2022-12-31T22:26:23.651Z,99944.06
2022-12-31T22:28:50.897Z,99930.38
2022-12-31T22:31:19.614Z,99928.69
2022-12-31T22:33:46.646Z,99958.00
2022-12-31T22:36:15.842Z,99926.06
2022-12-31T22:38:42.861Z,99940.75
2022-12-31T22:41:19.997Z,99914.78
2022-12-31T22:43:49.242Z,99931.16
2022-12-31T22:46:18.182Z,99929.38
2022-12-31T22:48:45.322Z,99930.22
2022-12-31T22:51:13.071Z,99937.97
2022-12-31T22:53:41.444Z,99922.31
2022-12-31T22:56:09.003Z,99911.97
2022-12-31T22:58:36.177Z,99941.31
2022-12-31T23:01:16.489Z,99952.44
2022-12-31T23:03:43.619Z,99950.53
2022-12-31T23:06:10.795Z,99925.63
2022-12-31T23:08:37.919Z,99945.41
2022-12-31T23:11:09.739Z,99948.81
2022-12-31T23:14:00.225Z,99940.94
2022-12-31T23:16:47.186Z,99942.66
2022-12-31T23:19:33.141Z,99958.88
2022-12-31T23:22:18.837Z,99945.06
2022-12-31T23:24:45.843Z,99970.22
2022-12-31T23:27:12.930Z,99947.72
2022-12-31T23:29:46.173Z,99928.75
2022-12-31T23:32:15.910Z,99917.69
2022-12-31T23:34:43.326Z,99943.41
2022-12-31T23:37:10.841Z,99974.50
2022-12-31T23:39:37.864Z,99975.28
2022-12-31T23:42:04.892Z,99946.00
2022-12-31T23:44:32.023Z,99938.31
2022-12-31T23:46:59.006Z,99973.59
2022-12-31T23:49:26.056Z,99944.06
2022-12-31T23:51:53.043Z,99957.97
2022-12-31T23:54:20.050Z,99978.56
2022-12-31T23:56:47.050Z,99939.66
2022-12-31T23:59:14.078Z,99961.19
